createdAt,value
2016-12-28T00:00:52.768Z,5.42
2016-12-28T00:01:52.696Z,5.41
2016-12-28T00:02:52.775Z,5.49
2016-12-28T00:03:52.759Z,5.45
2016-12-28T00:04:52.710Z,5.48
2016-12-28T00:05:52.705Z,5.46
2016-12-28T00:06:52.752Z,5.51
2016-12-28T00:07:52.822Z,5.54
2016-12-28T00:08:52.790Z,5.51
2016-12-28T00:09:52.711Z,5.6
2016-12-28T00:10:52.891Z,5.51
2016-12-28T00:11:52.771Z,5.7
2016-12-28T00:12:52.733Z,5.59
2016-12-28T00:13:52.715Z,5.52
2016-12-28T00:14:52.710Z,5.66
2016-12-28T00:15:52.765Z,5.66
2016-12-28T00:16:52.723Z,5.6
2016-12-28T00:17:52.729Z,5.52
2016-12-28T00:18:52.727Z,5.52
2016-12-28T00:19:52.669Z,5.54
2016-12-28T00:20:52.731Z,5.55
2016-12-28T00:21:52.721Z,5.67
2016-12-28T00:22:52.755Z,5.63
2016-12-28T00:23:52.841Z,5.57
2016-12-28T00:24:52.738Z,5.54
2016-12-28T00:25:52.761Z,5.6
2016-12-28T00:26:52.728Z,5.62
2016-12-28T00:27:52.683Z,5.72
2016-12-28T00:28:52.745Z,5.59
2016-12-28T00:29:52.805Z,5.57
2016-12-28T00:30:52.745Z,5.49
2016-12-28T00:31:52.789Z,5.55
2016-12-28T00:32:53.026Z,5.54
2016-12-28T00:33:52.744Z,5.62
2016-12-28T00:34:52.741Z,5.54
2016-12-28T00:35:52.754Z,5.66
2016-12-28T00:36:52.694Z,5.64
2016-12-28T00:37:52.742Z,5.57
2016-12-28T00:38:52.748Z,5.54
2016-12-28T00:39:53.000Z,5.48
2016-12-28T00:40:52.755Z,5.54
2016-12-28T00:41:52.896Z,5.52
2016-12-28T00:42:52.769Z,5.46
2016-12-28T00:43:52.822Z,5.54
2016-12-28T00:44:52.788Z,5.48
2016-12-28T00:45:52.762Z,5.41
2016-12-28T00:46:52.822Z,5.37
2016-12-28T00:47:52.815Z,5.3
2016-12-28T00:48:52.716Z,5.31
2016-12-28T00:49:52.829Z,5.24
2016-12-28T00:50:52.785Z,5.33
2016-12-28T00:51:52.752Z,5.28
2016-12-28T00:52:52.751Z,5.2
2016-12-28T00:53:52.714Z,5.26
2016-12-28T00:54:52.772Z,5.12
2016-12-28T00:55:52.822Z,5.18
2016-12-28T00:56:52.707Z,5.24
2016-12-28T00:57:52.776Z,5.16
2016-12-28T00:58:52.759Z,5.18
2016-12-28T00:59:52.835Z,5.05
2016-12-28T01:00:52.856Z,5.08
2016-12-28T01:01:52.807Z,5.18
2016-12-28T01:02:52.778Z,5.18
2016-12-28T01:03:52.844Z,5.1
2016-12-28T01:04:52.842Z,5.27
2016-12-28T01:05:52.789Z,5.23
2016-12-28T01:06:52.794Z,5.23
2016-12-28T01:07:52.786Z,5.12
2016-12-28T01:08:52.840Z,5.24
2016-12-28T01:09:52.738Z,5.2
2016-12-28T01:10:52.815Z,5.3
2016-12-28T01:11:52.841Z,5.24
2016-12-28T01:12:52.926Z,5.18
2016-12-28T01:13:52.806Z,5.28
2016-12-28T01:14:52.819Z,5.27
2016-12-28T01:15:52.762Z,5.18
2016-12-28T01:16:52.760Z,5.24
2016-12-28T01:17:52.751Z,5.28
2016-12-28T01:18:52.861Z,5.31
2016-12-28T01:19:52.859Z,5.21
2016-12-28T01:20:52.926Z,5.21
2016-12-28T01:21:52.806Z,5.2
2016-12-28T01:22:52.798Z,5.15
2016-12-28T01:23:52.863Z,5.27
2016-12-28T01:24:52.757Z,5.2
2016-12-28T01:25:52.810Z,5.26
2016-12-28T01:26:52.815Z,5.21
2016-12-28T01:27:52.935Z,5.2
2016-12-28T01:28:52.812Z,5.13
2016-12-28T01:29:52.818Z,5.21
2016-12-28T01:30:52.872Z,5.27
2016-12-28T01:31:52.819Z,5.23
2016-12-28T01:32:52.836Z,5.24
2016-12-28T01:33:52.819Z,5.12
2016-12-28T01:34:52.774Z,5.13
2016-12-28T01:35:52.821Z,5.2
2016-12-28T01:36:52.767Z,5.12
2016-12-28T01:37:52.886Z,5.23
2016-12-28T01:38:52.777Z,5.2
2016-12-28T01:39:52.915Z,5.16
2016-12-28T01:40:52.773Z,5.16
2016-12-28T01:41:52.803Z,5.16
2016-12-28T01:42:52.836Z,5.18
2016-12-28T01:43:53.141Z,5.21
2016-12-28T01:44:52.868Z,5.13
2016-12-28T01:45:52.896Z,5.1
2016-12-28T01:46:52.832Z,5.08
2016-12-28T01:47:52.890Z,5
2016-12-28T01:48:52.845Z,5.02
2016-12-28T01:49:52.852Z,4.95
2016-12-28T01:50:52.840Z,5.12
2016-12-28T01:51:52.892Z,5.03
2016-12-28T01:52:52.869Z,4.98
2016-12-28T01:53:52.914Z,4.92
2016-12-28T01:54:52.789Z,4.84
2016-12-28T01:55:52.909Z,4.83
2016-12-28T01:56:52.790Z,4.88
2016-12-28T01:57:52.796Z,4.79
2016-12-28T01:58:52.793Z,4.87
2016-12-28T01:59:52.893Z,4.76
2016-12-28T02:00:52.857Z,4.84
2016-12-28T02:01:52.921Z,4.78
2016-12-28T02:02:52.864Z,4.69
2016-12-28T02:03:52.812Z,4.71
2016-12-28T02:04:52.932Z,4.65
2016-12-28T02:05:52.843Z,4.61
2016-12-28T02:06:52.794Z,4.57
2016-12-28T02:07:52.805Z,4.64
2016-12-28T02:08:52.803Z,4.56
2016-12-28T02:09:52.943Z,4.48
2016-12-28T02:10:52.863Z,4.44
2016-12-28T02:11:52.820Z,4.53
2016-12-28T02:12:52.866Z,4.47
2016-12-28T02:13:52.952Z,4.51
2016-12-28T02:14:53.075Z,4.44
2016-12-28T02:15:52.994Z,4.36
2016-12-28T02:16:52.815Z,4.4
2016-12-28T02:17:52.887Z,4.29
2016-12-28T02:18:52.878Z,4.28
2016-12-28T02:19:52.953Z,4.3
2016-12-28T02:20:52.900Z,4.35
2016-12-28T02:21:52.881Z,4.33
2016-12-28T02:22:53.057Z,4.26
2016-12-28T02:23:52.871Z,4.2
2016-12-28T02:24:52.971Z,4.21
2016-12-28T02:25:52.875Z,4.35
2016-12-28T02:26:52.927Z,4.2
2016-12-28T02:27:52.896Z,4.2
2016-12-28T02:28:52.826Z,4.22
2016-12-28T02:29:52.888Z,4.18
2016-12-28T02:30:52.888Z,4.14
2016-12-28T02:31:52.951Z,4.12
2016-12-28T02:32:52.964Z,4.07
2016-12-28T02:33:52.841Z,4.12
2016-12-28T02:34:52.880Z,4.11
2016-12-28T02:35:52.828Z,4.15
2016-12-28T02:36:52.845Z,4.08
2016-12-28T02:37:52.893Z,4.03
2016-12-28T02:38:52.896Z,4.12
2016-12-28T02:39:52.968Z,3.93
2016-12-28T02:40:52.875Z,3.97
2016-12-28T02:41:52.953Z,4.07
2016-12-28T02:42:52.900Z,4.03
2016-12-28T02:43:52.899Z,4
2016-12-28T02:44:52.983Z,3.9
2016-12-28T02:45:53.104Z,4.02
2016-12-28T02:46:52.909Z,3.97
2016-12-28T02:47:52.955Z,3.92
2016-12-28T02:48:52.974Z,3.97
2016-12-28T02:49:52.956Z,3.99
2016-12-28T02:50:52.929Z,3.89
2016-12-28T02:51:52.928Z,3.96
2016-12-28T02:52:52.928Z,3.86
2016-12-28T02:53:53.025Z,3.79
2016-12-28T02:54:52.974Z,3.81
2016-12-28T02:55:52.856Z,3.89
2016-12-28T02:56:52.917Z,3.75
2016-12-28T02:57:52.880Z,3.85
2016-12-28T02:58:52.915Z,3.84
2016-12-28T02:59:52.913Z,3.72
2016-12-28T03:00:52.914Z,3.72
2016-12-28T03:01:52.871Z,3.85
2016-12-28T03:02:52.929Z,3.82
2016-12-28T03:03:53.026Z,3.75
2016-12-28T03:04:52.867Z,3.79
2016-12-28T03:05:52.871Z,3.84
2016-12-28T03:06:53.040Z,3.74
2016-12-28T03:07:52.917Z,3.67
2016-12-28T03:08:53.001Z,3.76
2016-12-28T03:09:52.983Z,3.69
2016-12-28T03:10:52.870Z,3.67
2016-12-28T03:11:52.996Z,3.75
2016-12-28T03:12:52.943Z,3.79
2016-12-28T03:13:52.881Z,3.79
2016-12-28T03:14:52.995Z,3.74
2016-12-28T03:15:52.942Z,3.74
2016-12-28T03:16:53.102Z,3.71
2016-12-28T03:17:52.944Z,3.71
2016-12-28T03:18:52.876Z,3.71
2016-12-28T03:19:53.212Z,3.76
2016-12-28T03:20:52.937Z,3.76
2016-12-28T03:21:53.004Z,3.79
2016-12-28T03:22:52.894Z,3.81
2016-12-28T03:23:52.959Z,3.76
2016-12-28T03:24:53.051Z,3.74
2016-12-28T03:25:52.919Z,3.71
2016-12-28T03:26:52.893Z,3.66
2016-12-28T03:27:52.903Z,3.69
2016-12-28T03:28:53.013Z,3.66
2016-12-28T03:29:52.950Z,3.66
2016-12-28T03:30:53.009Z,3.71
2016-12-28T03:31:52.946Z,3.71
2016-12-28T03:32:53.017Z,3.72
2016-12-28T03:33:52.973Z,3.79
2016-12-28T03:34:52.946Z,3.72
2016-12-28T03:35:53.006Z,3.74
2016-12-28T03:36:52.953Z,3.75
2016-12-28T03:37:52.953Z,3.71
2016-12-28T03:38:52.958Z,3.81
2016-12-28T03:39:52.968Z,3.78
2016-12-28T03:40:52.961Z,3.79
2016-12-28T03:41:52.966Z,3.74
2016-12-28T03:42:52.974Z,3.71
2016-12-28T03:43:52.902Z,3.71
2016-12-28T03:44:52.910Z,3.75
2016-12-28T03:45:53.017Z,3.66
2016-12-28T03:46:52.984Z,3.69
2016-12-28T03:47:53.193Z,3.78
2016-12-28T03:48:52.923Z,3.71
2016-12-28T03:49:53.034Z,3.63
2016-12-28T03:50:52.926Z,3.72
2016-12-28T03:51:53.030Z,3.76
2016-12-28T03:52:52.941Z,3.82
2016-12-28T03:53:52.977Z,3.78
2016-12-28T03:54:53.021Z,3.78
2016-12-28T03:55:53.051Z,3.76
2016-12-28T03:56:53.008Z,3.92
2016-12-28T03:57:53.006Z,3.85
2016-12-28T03:58:52.993Z,3.76
2016-12-28T03:59:52.995Z,3.76
2016-12-28T04:00:52.993Z,3.85
2016-12-28T04:01:53.062Z,3.79
2016-12-28T04:02:52.937Z,3.84
2016-12-28T04:03:53.058Z,3.75
2016-12-28T04:04:53.007Z,3.86
2016-12-28T04:05:52.936Z,3.81
2016-12-28T04:06:52.956Z,3.71
2016-12-28T04:07:53.031Z,3.79
2016-12-28T04:08:52.997Z,3.81
2016-12-28T04:09:53.062Z,3.74
2016-12-28T04:10:53.023Z,3.76
2016-12-28T04:11:53.045Z,3.74
2016-12-28T04:12:53.014Z,3.78
2016-12-28T04:13:53.013Z,3.78
2016-12-28T04:14:52.947Z,3.82
2016-12-28T04:15:52.955Z,3.85
2016-12-28T04:16:53.007Z,3.81
2016-12-28T04:17:53.077Z,3.75
2016-12-28T04:18:53.238Z,3.74
2016-12-28T04:19:53.023Z,3.82
2016-12-28T04:20:53.015Z,3.86
2016-12-28T04:21:53.021Z,3.85
2016-12-28T04:22:53.099Z,3.89
2016-12-28T04:23:53.152Z,3.86
2016-12-28T04:24:53.019Z,3.78
2016-12-28T04:25:53.089Z,3.76
2016-12-28T04:26:53.085Z,3.84
2016-12-28T04:27:53.038Z,3.85
2016-12-28T04:28:53.038Z,3.79
2016-12-28T04:29:52.961Z,3.85
2016-12-28T04:30:53.123Z,3.75
2016-12-28T04:31:53.028Z,3.79
2016-12-28T04:32:52.982Z,3.82
2016-12-28T04:33:53.096Z,3.75
2016-12-28T04:34:53.039Z,3.81
2016-12-28T04:35:53.029Z,3.79
2016-12-28T04:36:53.049Z,3.92
2016-12-28T04:37:52.976Z,3.85
2016-12-28T04:38:53.045Z,3.85
2016-12-28T04:39:53.079Z,3.9
2016-12-28T04:40:53.043Z,3.85
2016-12-28T04:41:53.080Z,3.84
2016-12-28T04:42:52.984Z,3.82
2016-12-28T04:43:53.054Z,3.76
2016-12-28T04:44:53.091Z,3.79
2016-12-28T04:45:52.996Z,3.69
2016-12-28T04:46:53.168Z,3.53
2016-12-28T04:47:53.104Z,3.45
2016-12-28T04:48:52.986Z,3.4
2016-12-28T04:49:53.255Z,3.27
2016-12-28T04:50:53.122Z,3.19
2016-12-28T04:51:53.049Z,3.2
2016-12-28T04:52:53.004Z,3.14
2016-12-28T04:53:53.055Z,3.14
2016-12-28T04:54:53.135Z,3.06
2016-12-28T04:55:53.320Z,3.21
2016-12-28T04:56:53.003Z,3.13
2016-12-28T04:57:53.112Z,3.21
2016-12-28T04:58:53.122Z,3.17
2016-12-28T04:59:53.055Z,3.19
2016-12-28T05:00:53.075Z,3.32
2016-12-28T05:01:53.123Z,3.17
2016-12-28T05:02:53.071Z,3.23
2016-12-28T05:03:53.081Z,3.23
2016-12-28T05:04:53.063Z,3.23
2016-12-28T05:05:53.133Z,3.3
2016-12-28T05:06:53.133Z,3.2
2016-12-28T05:07:53.121Z,3.34
2016-12-28T05:08:53.020Z,3.21
2016-12-28T05:09:53.088Z,3.2
2016-12-28T05:10:53.078Z,3.2
2016-12-28T05:11:53.144Z,3.3
2016-12-28T05:12:53.150Z,3.09
2016-12-28T05:13:53.038Z,3.2
2016-12-28T05:14:53.088Z,3.24
2016-12-28T05:15:53.042Z,3.2
2016-12-28T05:16:53.105Z,3.17
2016-12-28T05:17:53.087Z,3.08
2016-12-28T05:18:53.152Z,3.13
2016-12-28T05:19:53.035Z,3.03
2016-12-28T05:20:53.209Z,3.03
2016-12-28T05:21:53.151Z,3.09
2016-12-28T05:22:53.160Z,3.16
2016-12-28T05:23:53.154Z,3.16
2016-12-28T05:24:53.162Z,3.09
2016-12-28T05:25:53.052Z,3.11
2016-12-28T05:26:53.099Z,2.98
2016-12-28T05:27:53.158Z,3.05
2016-12-28T05:28:53.182Z,3.06
2016-12-28T05:29:53.047Z,3.14
2016-12-28T05:30:53.172Z,3.16
2016-12-28T05:31:53.185Z,3.09
2016-12-28T05:32:53.119Z,3.05
2016-12-28T05:33:53.182Z,3.16
2016-12-28T05:34:53.049Z,3.17
2016-12-28T05:35:53.068Z,3.17
2016-12-28T05:36:53.060Z,3.19
2016-12-28T05:37:53.188Z,3.17
2016-12-28T05:38:53.064Z,3.13
2016-12-28T05:39:53.203Z,2.95
2016-12-28T05:40:53.127Z,2.96
2016-12-28T05:41:53.193Z,2.87
2016-12-28T05:42:53.175Z,2.87
2016-12-28T05:43:53.204Z,2.7
2016-12-28T05:44:53.119Z,2.72
2016-12-28T05:45:53.130Z,2.76
2016-12-28T05:46:53.172Z,2.77
2016-12-28T05:47:53.180Z,2.67
2016-12-28T05:48:53.212Z,2.66
2016-12-28T05:49:53.186Z,2.65
2016-12-28T05:50:53.142Z,2.76
2016-12-28T05:51:53.384Z,2.76
2016-12-28T05:52:53.200Z,2.7
2016-12-28T05:53:53.202Z,2.69
2016-12-28T05:54:53.188Z,2.67
2016-12-28T05:55:53.152Z,2.7
2016-12-28T05:56:53.086Z,2.63
2016-12-28T05:57:53.098Z,2.83
2016-12-28T05:58:53.153Z,2.8
2016-12-28T05:59:53.296Z,2.81
2016-12-28T06:00:53.162Z,2.87
2016-12-28T06:01:53.091Z,2.8
2016-12-28T06:02:53.212Z,3.01
2016-12-28T06:03:53.226Z,3.09
2016-12-28T06:04:53.164Z,2.81
2016-12-28T06:05:53.165Z,3.01
2016-12-28T06:06:53.209Z,3.02
2016-12-28T06:07:53.174Z,3.08
2016-12-28T06:08:53.169Z,2.99
2016-12-28T06:09:53.101Z,3.06
2016-12-28T06:10:53.226Z,3.06
2016-12-28T06:11:53.162Z,2.98
2016-12-28T06:12:53.157Z,3.14
2016-12-28T06:13:53.117Z,3.02
2016-12-28T06:14:53.225Z,3.02
2016-12-28T06:15:53.363Z,2.99
2016-12-28T06:16:53.234Z,2.98
2016-12-28T06:17:53.151Z,2.96
2016-12-28T06:18:53.244Z,3.03
2016-12-28T06:19:53.180Z,2.98
2016-12-28T06:20:53.171Z,2.87
2016-12-28T06:21:53.246Z,2.98
2016-12-28T06:22:53.438Z,2.95
2016-12-28T06:23:53.178Z,2.83
2016-12-28T06:24:53.245Z,2.69
2016-12-28T06:25:53.199Z,2.63
2016-12-28T06:26:53.199Z,2.63
2016-12-28T06:27:53.202Z,2.59
2016-12-28T06:28:53.187Z,2.59
2016-12-28T06:29:53.223Z,2.62
2016-12-28T06:30:53.221Z,2.51
2016-12-28T06:31:53.335Z,2.67
2016-12-28T06:32:53.218Z,2.78
2016-12-28T06:33:53.139Z,2.8
2016-12-28T06:34:53.296Z,2.95
2016-12-28T06:35:53.263Z,2.93
2016-12-28T06:36:53.172Z,2.87
2016-12-28T06:37:53.211Z,2.81
2016-12-28T06:38:53.281Z,2.88
2016-12-28T06:39:53.216Z,2.85
2016-12-28T06:40:53.276Z,2.76
2016-12-28T06:41:53.275Z,2.85
2016-12-28T06:42:53.214Z,2.83
2016-12-28T06:43:53.223Z,2.76
2016-12-28T06:44:53.220Z,2.76
2016-12-28T06:45:53.226Z,2.77
2016-12-28T06:46:53.235Z,2.85
2016-12-28T06:47:53.265Z,2.81
2016-12-28T06:48:53.180Z,2.8
2016-12-28T06:49:53.418Z,2.81
2016-12-28T06:50:53.157Z,2.7
2016-12-28T06:51:53.288Z,2.93
2016-12-28T06:52:53.256Z,3.02
2016-12-28T06:53:53.388Z,2.96
2016-12-28T06:54:53.318Z,3.05
2016-12-28T06:55:53.283Z,2.78
2016-12-28T06:56:53.257Z,3.08
2016-12-28T06:57:53.171Z,3.06
2016-12-28T06:58:53.175Z,3.06
2016-12-28T06:59:53.237Z,3.16
2016-12-28T07:00:53.330Z,3.17
2016-12-28T07:01:53.262Z,3.19
2016-12-28T07:02:53.241Z,3.13
2016-12-28T07:03:53.272Z,3.17
2016-12-28T07:04:53.324Z,3.2
2016-12-28T07:05:53.194Z,3.21
2016-12-28T07:06:53.257Z,3.21
2016-12-28T07:07:53.255Z,3.19
2016-12-28T07:08:53.311Z,3.21
2016-12-28T07:09:53.321Z,3.23
2016-12-28T07:10:53.308Z,3.3
2016-12-28T07:11:53.202Z,3.3
2016-12-28T07:12:53.264Z,3.27
2016-12-28T07:13:53.267Z,3.21
2016-12-28T07:14:53.262Z,3.3
2016-12-28T07:15:53.317Z,3.17
2016-12-28T07:16:53.328Z,3.26
2016-12-28T07:17:53.203Z,3.23
2016-12-28T07:18:53.267Z,3.3
2016-12-28T07:19:53.380Z,3.16
2016-12-28T07:20:53.327Z,3.29
2016-12-28T07:21:53.263Z,3.32
2016-12-28T07:22:53.333Z,3.3
2016-12-28T07:23:53.271Z,3.29
2016-12-28T07:24:53.549Z,3.42
2016-12-28T07:25:53.324Z,3.32
2016-12-28T07:26:53.274Z,3.42
2016-12-28T07:27:53.216Z,3.34
2016-12-28T07:28:53.290Z,3.43
2016-12-28T07:29:53.288Z,3.34
2016-12-28T07:30:53.280Z,3.42
2016-12-28T07:31:53.302Z,3.27
2016-12-28T07:32:53.294Z,3.42
2016-12-28T07:33:53.288Z,3.37
2016-12-28T07:34:53.338Z,3.4
2016-12-28T07:35:53.469Z,3.4
2016-12-28T07:36:53.297Z,3.45
2016-12-28T07:37:53.349Z,3.4
2016-12-28T07:38:53.292Z,3.42
2016-12-28T07:39:53.388Z,3.39
2016-12-28T07:40:53.294Z,3.42
2016-12-28T07:41:53.367Z,3.35
2016-12-28T07:42:53.330Z,3.29
2016-12-28T07:43:53.240Z,3.4
2016-12-28T07:44:53.396Z,3.35
2016-12-28T07:45:53.367Z,3.34
2016-12-28T07:46:53.240Z,3.42
2016-12-28T07:47:53.241Z,3.49
2016-12-28T07:48:53.310Z,3.4
2016-12-28T07:49:53.297Z,3.37
2016-12-28T07:50:53.321Z,3.45
2016-12-28T07:51:53.564Z,3.45
2016-12-28T07:52:53.375Z,3.39
2016-12-28T07:53:53.378Z,3.45
2016-12-28T07:54:53.325Z,3.45
2016-12-28T07:55:53.433Z,3.48
2016-12-28T07:56:53.344Z,3.42
2016-12-28T07:57:53.340Z,3.51
2016-12-28T07:58:53.269Z,3.45
2016-12-28T07:59:53.396Z,3.49
2016-12-28T08:00:53.370Z,3.53
2016-12-28T08:01:53.310Z,3.46
2016-12-28T08:02:53.329Z,3.49
2016-12-28T08:03:53.459Z,3.53
2016-12-28T08:04:53.343Z,3.54
2016-12-28T08:05:53.320Z,3.58
2016-12-28T08:06:53.381Z,3.53
2016-12-28T08:07:53.366Z,3.49
2016-12-28T08:08:53.405Z,3.45
2016-12-28T08:09:53.324Z,3.46
2016-12-28T08:10:53.274Z,3.51
2016-12-28T08:11:53.276Z,3.51
2016-12-28T08:12:53.282Z,3.45
2016-12-28T08:13:53.324Z,3.51
2016-12-28T08:14:53.334Z,3.54
2016-12-28T08:15:53.271Z,3.49
2016-12-28T08:16:53.288Z,3.48
2016-12-28T08:17:53.409Z,3.51
2016-12-28T08:18:53.289Z,3.54
2016-12-28T08:19:53.400Z,3.57
2016-12-28T08:20:53.394Z,3.61
2016-12-28T08:21:53.293Z,3.57
2016-12-28T08:22:53.278Z,3.63
2016-12-28T08:23:53.398Z,3.54
2016-12-28T08:24:53.433Z,3.61
2016-12-28T08:25:53.281Z,3.63
2016-12-28T08:26:53.530Z,3.63
2016-12-28T08:27:53.418Z,3.67
2016-12-28T08:28:53.308Z,3.64
2016-12-28T08:29:53.406Z,3.53
2016-12-28T08:30:53.408Z,3.61
2016-12-28T08:31:53.293Z,3.54
2016-12-28T08:32:53.398Z,3.61
2016-12-28T08:33:53.370Z,3.63
2016-12-28T08:34:53.405Z,3.63
2016-12-28T08:35:53.407Z,3.61
2016-12-28T08:36:53.359Z,3.64
2016-12-28T08:37:53.416Z,3.61
2016-12-28T08:38:53.357Z,3.58
2016-12-28T08:39:53.554Z,3.66
2016-12-28T08:40:53.350Z,3.63
2016-12-28T08:41:53.297Z,3.61
2016-12-28T08:42:53.392Z,3.66
2016-12-28T08:43:53.502Z,3.67
2016-12-28T08:44:53.382Z,3.72
2016-12-28T08:45:53.430Z,3.66
2016-12-28T08:46:53.364Z,3.64
2016-12-28T08:47:53.357Z,3.57
2016-12-28T08:48:53.311Z,3.64
2016-12-28T08:49:53.367Z,3.63
2016-12-28T08:50:53.379Z,3.64
2016-12-28T08:51:53.319Z,3.72
2016-12-28T08:52:53.312Z,3.76
2016-12-28T08:53:53.358Z,3.76
2016-12-28T08:54:53.424Z,3.76
2016-12-28T08:55:53.744Z,3.76
2016-12-28T08:56:53.430Z,3.76
2016-12-28T08:57:53.533Z,3.78
2016-12-28T08:58:53.406Z,3.85
2016-12-28T08:59:53.428Z,3.85
2016-12-28T09:00:53.390Z,3.84
2016-12-28T09:01:53.369Z,3.76
2016-12-28T09:02:53.461Z,3.74
2016-12-28T09:03:53.467Z,3.78
2016-12-28T09:04:53.325Z,3.85
2016-12-28T09:05:53.418Z,3.9
2016-12-28T09:06:53.377Z,3.85
2016-12-28T09:07:53.379Z,3.94
2016-12-28T09:08:53.393Z,3.85
2016-12-28T09:09:53.392Z,3.76
2016-12-28T09:10:53.378Z,3.76
2016-12-28T09:11:53.445Z,3.74
2016-12-28T09:12:53.335Z,3.74
2016-12-28T09:13:53.386Z,3.69
2016-12-28T09:14:53.415Z,3.76
2016-12-28T09:15:53.414Z,3.74
2016-12-28T09:16:53.488Z,3.64
2016-12-28T09:17:53.411Z,3.57
2016-12-28T09:18:53.402Z,3.72
2016-12-28T09:19:53.396Z,3.61
2016-12-28T09:20:53.408Z,3.71
2016-12-28T09:21:53.386Z,3.63
2016-12-28T09:22:53.415Z,3.69
2016-12-28T09:23:53.352Z,3.69
2016-12-28T09:24:53.396Z,3.46
2016-12-28T09:25:53.352Z,3.6
2016-12-28T09:26:53.495Z,3.64
2016-12-28T09:27:53.408Z,3.64
2016-12-28T09:28:53.582Z,3.63
2016-12-28T09:29:53.488Z,3.61
2016-12-28T09:30:53.474Z,3.58
2016-12-28T09:31:53.348Z,3.54
2016-12-28T09:32:53.367Z,3.64
2016-12-28T09:33:53.375Z,3.63
2016-12-28T09:34:53.380Z,3.64
2016-12-28T09:35:53.372Z,3.71
2016-12-28T09:36:53.513Z,3.66
2016-12-28T09:37:53.425Z,3.67
2016-12-28T09:38:53.405Z,3.81
2016-12-28T09:39:53.419Z,3.71
2016-12-28T09:40:53.427Z,3.74
2016-12-28T09:41:53.425Z,3.74
2016-12-28T09:42:53.427Z,3.78
2016-12-28T09:43:53.425Z,3.72
2016-12-28T09:44:53.533Z,3.81
2016-12-28T09:45:53.385Z,3.89
2016-12-28T09:46:53.364Z,3.82
2016-12-28T09:47:53.519Z,3.84
2016-12-28T09:48:53.467Z,3.86
2016-12-28T09:49:53.498Z,3.89
2016-12-28T09:50:53.432Z,3.85
2016-12-28T09:51:53.435Z,3.9
2016-12-28T09:52:53.435Z,4
2016-12-28T09:53:53.440Z,3.97
2016-12-28T09:54:53.371Z,3.99
2016-12-28T09:55:53.435Z,4
2016-12-28T09:56:53.387Z,3.93
2016-12-28T09:57:53.501Z,3.89
2016-12-28T09:58:53.510Z,3.82
2016-12-28T09:59:53.559Z,3.85
2016-12-28T10:00:53.380Z,3.85
2016-12-28T10:01:53.498Z,3.84
2016-12-28T10:02:53.438Z,3.81
2016-12-28T10:03:53.448Z,3.86
2016-12-28T10:04:53.465Z,4.02
2016-12-28T10:05:53.452Z,4.04
2016-12-28T10:06:53.435Z,3.99
2016-12-28T10:07:53.544Z,4.03
2016-12-28T10:08:53.446Z,4.12
2016-12-28T10:09:53.456Z,4.1
2016-12-28T10:10:53.416Z,4.08
2016-12-28T10:11:53.404Z,4.2
2016-12-28T10:12:53.398Z,4.32
2016-12-28T10:13:53.400Z,4.22
2016-12-28T10:14:53.462Z,4.33
2016-12-28T10:15:53.519Z,4.17
2016-12-28T10:16:53.474Z,4.38
2016-12-28T10:17:53.538Z,4.22
2016-12-28T10:18:53.407Z,4.39
2016-12-28T10:19:53.398Z,4.4
2016-12-28T10:20:53.487Z,4.38
2016-12-28T10:21:53.465Z,4.35
2016-12-28T10:22:53.468Z,4.35
2016-12-28T10:23:53.482Z,4.32
2016-12-28T10:24:53.485Z,4.3
2016-12-28T10:25:53.549Z,4.35
2016-12-28T10:26:53.426Z,4.36
2016-12-28T10:27:53.480Z,4.3
2016-12-28T10:28:53.614Z,4.22
2016-12-28T10:29:53.434Z,4.2
2016-12-28T10:30:53.880Z,4.39
2016-12-28T10:31:53.521Z,4.22
2016-12-28T10:32:53.428Z,4.29
2016-12-28T10:33:53.562Z,4.36
2016-12-28T10:34:53.491Z,4.36
2016-12-28T10:35:53.424Z,4.39
2016-12-28T10:36:53.571Z,4.46
2016-12-28T10:37:53.569Z,4.44
2016-12-28T10:38:53.553Z,4.44
2016-12-28T10:39:53.552Z,4.44
2016-12-28T10:40:53.511Z,4.4
2016-12-28T10:41:53.431Z,4.5
2016-12-28T10:42:53.565Z,4.57
2016-12-28T10:43:53.556Z,4.57
2016-12-28T10:44:53.498Z,4.42
2016-12-28T10:45:53.555Z,4.48
2016-12-28T10:46:53.512Z,4.57
2016-12-28T10:47:53.549Z,4.58
2016-12-28T10:48:53.451Z,4.58
2016-12-28T10:49:53.457Z,4.65
2016-12-28T10:50:53.572Z,4.74
2016-12-28T10:51:53.519Z,4.51
2016-12-28T10:52:53.468Z,4.66
2016-12-28T10:53:53.456Z,4.56
2016-12-28T10:54:53.471Z,4.53
2016-12-28T10:55:53.526Z,4.39
2016-12-28T10:56:53.581Z,4.54
2016-12-28T10:57:53.522Z,4.61
2016-12-28T10:58:53.521Z,4.75
2016-12-28T10:59:53.563Z,4.78
2016-12-28T11:00:53.492Z,4.84
2016-12-28T11:01:53.761Z,4.83
2016-12-28T11:02:53.552Z,4.91
2016-12-28T11:03:53.519Z,4.94
2016-12-28T11:04:53.479Z,5.03
2016-12-28T11:05:53.532Z,5
2016-12-28T11:06:53.615Z,5.05
2016-12-28T11:07:53.594Z,4.9
2016-12-28T11:08:53.563Z,5.05
2016-12-28T11:09:53.546Z,5.06
2016-12-28T11:10:53.477Z,5.09
2016-12-28T11:11:53.602Z,5.02
2016-12-28T11:12:53.501Z,5.06
2016-12-28T11:13:53.539Z,5.02
2016-12-28T11:14:53.609Z,5.18
2016-12-28T11:15:53.608Z,5.16
2016-12-28T11:16:53.548Z,5.18
2016-12-28T11:17:53.558Z,5.06
2016-12-28T11:18:53.503Z,5.2
2016-12-28T11:19:53.598Z,5.1
2016-12-28T11:20:53.614Z,5.18
2016-12-28T11:21:53.489Z,5.16
2016-12-28T11:22:53.574Z,5.24
2016-12-28T11:23:53.515Z,5.31
2016-12-28T11:24:53.597Z,5.24
2016-12-28T11:25:53.490Z,5.24
2016-12-28T11:26:53.566Z,5.26
2016-12-28T11:27:53.510Z,5.31
2016-12-28T11:28:54.233Z,5.31
2016-12-28T11:29:53.504Z,5.36
2016-12-28T11:30:53.560Z,5.33
2016-12-28T11:31:53.565Z,5.42
2016-12-28T11:32:53.725Z,5.42
2016-12-28T11:33:53.576Z,5.37
2016-12-28T11:34:53.662Z,5.39
2016-12-28T11:35:53.841Z,5.36
2016-12-28T11:36:53.514Z,5.45
2016-12-28T11:37:53.591Z,5.36
2016-12-28T11:38:53.586Z,5.46
2016-12-28T11:39:53.553Z,5.31
2016-12-28T11:40:53.709Z,5.28
2016-12-28T11:41:53.582Z,5.33
2016-12-28T11:42:53.594Z,5.46
2016-12-28T11:43:53.586Z,5.37
2016-12-28T11:44:53.584Z,5.37
2016-12-28T11:45:53.527Z,5.49
2016-12-28T11:46:53.658Z,5.45
2016-12-28T11:47:53.598Z,5.48
2016-12-28T11:48:53.611Z,5.49
2016-12-28T11:49:53.613Z,5.51
2016-12-28T11:50:53.530Z,5.49
2016-12-28T11:51:53.567Z,5.49
2016-12-28T11:52:53.677Z,5.52
2016-12-28T11:53:53.679Z,5.48
2016-12-28T11:54:53.554Z,5.39
2016-12-28T11:55:53.684Z,5.39
2016-12-28T11:56:53.623Z,5.48
2016-12-28T11:57:53.675Z,5.46
2016-12-28T11:58:53.577Z,5.52
2016-12-28T11:59:53.690Z,5.54
2016-12-28T12:00:53.633Z,5.57
2016-12-28T12:01:53.676Z,5.55
2016-12-28T12:02:53.691Z,5.48
2016-12-28T12:03:53.961Z,5.6
2016-12-28T12:04:53.622Z,5.73
2016-12-28T12:05:53.577Z,5.54
2016-12-28T12:06:53.577Z,5.52
2016-12-28T12:07:53.760Z,5.64
2016-12-28T12:08:53.642Z,5.67
2016-12-28T12:09:53.587Z,5.62
2016-12-28T12:10:53.597Z,5.63
2016-12-28T12:11:53.750Z,5.6
2016-12-28T12:12:53.711Z,5.67
2016-12-28T12:13:53.602Z,5.57
2016-12-28T12:14:53.630Z,5.52
2016-12-28T12:15:53.580Z,5.62
2016-12-28T12:16:53.638Z,5.51
2016-12-28T12:17:53.699Z,5.49
2016-12-28T12:18:53.704Z,5.49
2016-12-28T12:19:53.710Z,5.51
2016-12-28T12:20:53.649Z,5.57
2016-12-28T12:21:53.638Z,5.55
2016-12-28T12:22:53.593Z,5.48
2016-12-28T12:23:53.779Z,5.59
2016-12-28T12:24:53.600Z,5.46
2016-12-28T12:25:53.592Z,5.48
2016-12-28T12:26:53.724Z,5.62
2016-12-28T12:27:53.658Z,5.48
2016-12-28T12:28:53.688Z,5.51
2016-12-28T12:29:53.681Z,5.49
2016-12-28T12:30:53.724Z,5.52
2016-12-28T12:31:53.669Z,5.49
2016-12-28T12:32:53.806Z,5.52
2016-12-28T12:33:53.667Z,5.62
2016-12-28T12:34:53.688Z,5.55
2016-12-28T12:35:53.746Z,5.55
2016-12-28T12:36:53.727Z,5.59
2016-12-28T12:37:53.680Z,5.73
2016-12-28T12:38:53.660Z,5.64
2016-12-28T12:39:53.663Z,5.67
2016-12-28T12:40:53.696Z,5.73
2016-12-28T12:41:53.682Z,5.66
2016-12-28T12:42:53.807Z,5.62
2016-12-28T12:43:53.674Z,5.73
2016-12-28T12:44:53.650Z,5.69
2016-12-28T12:45:53.633Z,5.75
2016-12-28T12:46:53.691Z,5.77
2016-12-28T12:47:53.628Z,5.75
2016-12-28T12:48:53.694Z,5.72
2016-12-28T12:49:53.697Z,5.81
2016-12-28T12:50:53.702Z,5.7
2016-12-28T12:51:53.686Z,5.78
2016-12-28T12:52:53.689Z,5.72
2016-12-28T12:53:53.700Z,5.7
2016-12-28T12:54:53.694Z,5.77
2016-12-28T12:55:53.760Z,5.75
2016-12-28T12:56:53.756Z,5.84
2016-12-28T12:57:53.646Z,5.72
2016-12-28T12:58:53.723Z,5.82
2016-12-28T12:59:53.648Z,5.81
2016-12-28T13:00:53.740Z,5.77
2016-12-28T13:01:53.730Z,5.84
2016-12-28T13:02:53.708Z,5.82
2016-12-28T13:03:53.741Z,5.85
2016-12-28T13:04:53.677Z,5.92
2016-12-28T13:05:53.894Z,5.89
2016-12-28T13:06:53.724Z,5.82
2016-12-28T13:07:53.715Z,5.92
2016-12-28T13:08:53.710Z,5.87
2016-12-28T13:09:53.723Z,5.85
2016-12-28T13:10:53.738Z,5.96
2016-12-28T13:11:54.013Z,5.99
2016-12-28T13:12:53.787Z,5.91
2016-12-28T13:13:53.860Z,5.96
2016-12-28T13:14:53.789Z,5.96
2016-12-28T13:15:53.676Z,5.91
2016-12-28T13:16:53.744Z,6.02
2016-12-28T13:17:53.677Z,6.02
2016-12-28T13:18:53.743Z,5.99
2016-12-28T13:19:53.725Z,6.09
2016-12-28T13:20:53.679Z,6.05
2016-12-28T13:21:53.741Z,5.95